Time;durP1;ratioP1;P1;durP2;ratioP2;P2;SDS_P1;SDS_P2;PMS_P1;PMS_P2;Temp;Humidity;BMP_temperature;BMP_pressure;BME280_temperature;BME280_humidity;BME280_pressure;Samples;Min_cycle;Max_cycle;Signal;HPM_P1;HPM_P2
2022/11/18 00:00:56;;;;;;;24.43;21.13;;;;;;;8.31;100.00;100322.53;2069269;28;20267;-64
2022/11/18 00:01:56;;;;;;;24.50;21.73;;;;;;;7.62;100.00;100206.78;2068848;28;20201;-64
2022/11/18 00:02:57;;;;;;;19.70;17.27;;;;;;;8.61;100.00;100361.00;2067590;28;20527;-64
2022/11/18 00:03:58;;;;;;;23.77;21.20;;;;;;;8.53;100.00;100345.00;2070122;28;20223;-64
2022/11/18 00:04:59;;;;;;;24.70;22.10;;;;;;;8.63;100.00;100358.63;2069963;28;20451;-64
2022/11/18 00:05:59;;;;;;;28.30;22.80;;;;;;;8.65;100.00;100364.47;2069154;28;20249;-64
2022/11/18 00:07:00;;;;;;;25.17;21.40;;;;;;;8.67;100.00;100362.06;2069510;28;20190;-64
2022/11/18 00:08:00;;;;;;;26.20;21.83;;;;;;;8.21;100.00;100284.13;2069817;28;20251;-64
2022/11/18 00:09:01;;;;;;;18.47;16.47;;;;;;;8.55;100.00;100354.44;2069860;28;20185;-64
2022/11/18 00:10:01;;;;;;;24.87;22.07;;;;;;;8.60;100.00;100364.97;2069097;28;20643;-64
2022/11/18 00:11:07;;;;;;;23.40;20.80;;;;;;;8.62;100.00;100356.28;2070141;28;20180;-64
2022/11/18 00:14:46;;;;;;;25.83;21.93;;;;;;;8.60;100.00;100361.44;2070820;28;20891;-61
2022/11/18 00:15:46;;;;;;;20.93;16.77;;;;;;;8.60;100.00;100367.75;2068253;28;20956;-61
2022/11/18 00:16:56;;;;;;;25.57;21.93;;;;;;;8.63;100.00;100371.63;2069552;28;20276;-61
2022/11/18 00:17:57;;;;;;;27.93;23.30;;;;;;;8.68;100.00;100366.41;2069564;28;20231;-61
2022/11/18 00:18:57;;;;;;;30.00;23.30;;;;;;;8.50;100.00;100338.34;2069574;28;20447;-61
2022/11/18 00:19:57;;;;;;;28.80;23.80;;;;;;;8.71;100.00;100368.31;2070037;28;20224;-61
2022/11/18 00:21:05;;;;;;;33.87;23.33;;;;;;;8.71;100.00;100362.00;2069810;28;20184;-61
2022/11/18 00:22:10;;;;;;;21.90;18.30;;;;;;;8.73;100.00;100363.16;2069744;28;21815;-61
2022/11/18 00:23:11;;;;;;;25.07;19.90;;;;;;;8.63;100.00;100347.56;2068990;28;20555;-61
2022/11/18 00:24:11;;;;;;;24.77;22.07;;;;;;;8.80;100.00;100362.19;2069873;28;20445;-61
2022/11/18 00:25:12;;;;;;;26.10;22.77;;;;;;;8.76;100.00;100351.22;2070451;28;20675;-61
2022/11/18 00:26:13;;;;;;;25.97;23.07;;;;;;;8.84;100.00;100363.69;2069511;28;20189;-61
2022/11/18 00:27:14;;;;;;;29.03;23.20;;;;;;;8.87;100.00;100357.31;2069767;28;20694;-61
2022/11/18 00:28:14;;;;;;;27.07;23.60;;;;;;;8.91;100.00;100362.78;2069398;28;20895;-61
2022/11/18 00:29:14;;;;;;;24.77;19.67;;;;;;;8.93;100.00;100352.06;2070066;28;20194;-61
2022/11/18 00:30:15;;;;;;;27.17;24.10;;;;;;;8.94;100.00;100357.19;2069209;28;20221;-62
2022/11/18 00:31:16;;;;;;;29.47;23.97;;;;;;;8.77;100.00;100327.16;2068712;28;20621;-61
2022/11/18 00:32:16;;;;;;;27.57;23.63;;;;;;;8.94;100.00;100346.13;2070134;28;20181;-61
2022/11/18 00:33:17;;;;;;;31.90;25.33;;;;;;;8.92;100.00;100342.97;2070908;28;20272;-61
2022/11/18 00:34:17;;;;;;;29.27;24.43;;;;;;;8.49;100.00;100269.72;2069445;28;20205;-61
2022/11/18 00:35:18;;;;;;;28.57;25.00;;;;;;;9.04;100.00;100352.63;2069178;28;20740;-61
2022/11/18 00:36:18;;;;;;;28.23;25.20;;;;;;;8.85;100.00;100307.22;2069693;28;20612;-61
2022/11/18 00:37:19;;;;;;;29.73;25.00;;;;;;;9.07;100.00;100343.47;2068937;28;20192;-61
2022/11/18 00:38:19;;;;;;;33.10;24.70;;;;;;;9.09;100.00;100346.56;2068401;28;20200;-61
2022/11/18 00:39:20;;;;;;;27.00;24.10;;;;;;;9.10;100.00;100343.38;2069666;28;20260;-61
2022/11/18 00:40:20;;;;;;;21.13;18.83;;;;;;;9.11;100.00;100342.19;2070387;28;20169;-62
2022/11/18 00:41:21;;;;;;;30.63;25.53;;;;;;;9.11;100.00;100344.16;2070510;28;20181;-61
2022/11/18 00:43:41;;;;;;;25.77;22.23;;;;;;;9.10;100.00;100345.38;2069172;28;20565;-61
2022/11/18 00:44:42;;;;;;;27.17;22.10;;;;;;;9.13;100.00;100350.03;2070506;28;20425;-61
2022/11/18 00:45:42;;;;;;;24.33;21.70;;;;;;;8.55;100.00;100268.81;2068273;28;20465;-61
2022/11/18 00:46:43;;;;;;;18.30;15.67;;;;;;;9.17;100.00;100362.56;2068910;28;20190;-61
2022/11/18 00:47:43;;;;;;;21.87;16.33;;;;;;;9.10;100.00;100340.63;2068944;28;20197;-61
2022/11/18 00:48:44;;;;;;;20.07;16.70;;;;;;;9.05;100.00;100352.19;2069228;28;20279;-61
2022/11/18 00:49:44;;;;;;;19.27;16.07;;;;;;;8.99;100.00;100340.09;2069699;28;23545;-61
2022/11/18 00:50:44;;;;;;;23.33;19.50;;;;;;;9.13;100.00;100344.53;2069943;28;20235;-61
2022/11/18 00:51:45;;;;;;;21.10;18.30;;;;;;;9.17;100.00;100350.75;2069143;28;20233;-61
2022/11/18 00:52:46;;;;;;;19.83;17.07;;;;;;;9.21;100.00;100348.66;2070314;28;20190;-61
2022/11/18 00:53:46;;;;;;;21.10;17.60;;;;;;;9.26;100.00;100353.69;2069836;28;20271;-61
2022/11/18 00:54:46;;;;;;;16.97;15.13;;;;;;;9.29;100.00;100344.53;2069709;28;20570;-64
2022/11/18 00:55:47;;;;;;;19.33;15.80;;;;;;;9.33;100.00;100356.31;2068656;28;20189;-64
2022/11/18 00:56:48;;;;;;;21.63;17.10;;;;;;;8.75;100.00;100261.28;2069905;28;20221;-64
2022/11/18 00:57:48;;;;;;;20.50;16.23;;;;;;;9.31;100.00;100342.91;2069016;28;20205;-64
2022/11/18 00:58:49;;;;;;;17.97;16.07;;;;;;;9.37;100.00;100334.88;2069658;28;20564;-62
2022/11/18 00:59:49;;;;;;;18.13;16.20;;;;;;;9.37;100.00;100346.72;2068989;28;20240;-61
2022/11/18 01:00:51;;;;;;;19.73;16.87;;;;;;;9.41;100.00;100341.09;2070017;28;20181;-62
2022/11/18 01:01:51;;;;;;;19.60;16.23;;;;;;;9.43;100.00;100338.69;2069754;28;20194;-62
2022/11/18 01:02:52;;;;;;;17.63;14.97;;;;;;;9.08;100.00;100286.97;2069551;28;20457;-62
2022/11/18 01:03:52;;;;;;;17.07;15.27;;;;;;;9.34;100.00;100322.69;2069778;28;20189;-62
2022/11/18 01:04:53;;;;;;;17.00;15.17;;;;;;;9.55;100.00;100333.25;2069655;28;20566;-62
2022/11/18 01:05:53;;;;;;;20.07;15.87;;;;;;;9.57;100.00;100341.09;2068889;28;20225;-62
2022/11/18 01:06:54;;;;;;;21.10;15.73;;;;;;;9.46;100.00;100322.00;2069044;28;20216;-62
2022/11/18 01:07:54;;;;;;;19.23;15.83;;;;;;;9.40;100.00;100290.56;2068864;28;20254;-62
2022/11/18 01:08:54;;;;;;;17.87;15.73;;;;;;;9.67;100.00;100334.53;2070646;28;20182;-62
2022/11/18 01:09:56;;;;;;;17.77;15.03;;;;;;;9.54;100.00;100306.00;2069966;28;20646;-62
2022/11/18 01:13:17;;;;;;;21.87;15.27;;;;;;;9.70;100.00;100330.91;2069726;28;20189;-62
2022/11/18 01:13:35;;;;;;;21.87;15.00;;;;;;;9.70;100.00;100328.13;2066724;28;20397;-62
2022/11/18 01:14:36;;;;;;;18.37;14.73;;;;;;;9.75;100.00;100325.63;2067783;28;20444;-62
2022/11/18 01:15:39;;;;;;;23.37;15.37;;;;;;;9.58;100.00;100306.72;2067881;28;20636;-62
2022/11/18 01:16:39;;;;;;;21.07;14.70;;;;;;;9.33;100.00;100278.88;2070005;28;20283;-62
2022/11/18 01:17:40;;;;;;;22.53;15.30;;;;;;;9.78;100.00;100316.44;2068986;28;20444;-61
2022/11/18 01:18:40;;;;;;;22.63;14.93;;;;;;;9.38;100.00;100253.47;2069582;28;20585;-62
2022/11/18 01:19:41;;;;;;;18.27;15.10;;;;;;;9.68;100.00;100294.59;2069085;28;20276;-62
2022/11/18 01:20:41;;;;;;;18.70;15.03;;;;;;;9.85;100.00;100318.28;2069983;28;20228;-62
2022/11/18 01:21:41;;;;;;;19.73;16.47;;;;;;;9.86;100.00;100314.28;2069030;28;20271;-62
2022/11/18 01:22:42;;;;;;;19.17;15.37;;;;;;;9.85;100.00;100323.81;2070594;28;20576;-62
2022/11/18 01:23:43;;;;;;;18.27;15.70;;;;;;;9.26;100.00;100232.81;2068704;28;20221;-62
2022/11/18 01:24:43;;;;;;;18.27;16.30;;;;;;;9.84;100.00;100316.72;2069518;28;20197;-62
2022/11/18 01:25:46;;;;;;;19.47;17.30;;;;;;;9.81;100.00;100315.59;2067723;28;20586;-62
2022/11/18 01:26:47;;;;;;;19.10;17.03;;;;;;;9.77;100.00;100322.41;2069744;28;20508;-62
2022/11/18 01:27:47;;;;;;;17.60;15.70;;;;;;;9.79;100.00;100326.31;2067972;28;20476;-62
2022/11/18 01:28:48;;;;;;;17.20;14.57;;;;;;;9.79;100.00;100320.00;2068049;28;20197;-62
2022/11/18 01:29:48;;;;;;;16.70;15.00;;;;;;;9.47;100.00;100271.00;2066863;28;20731;-62
2022/11/18 01:30:49;;;;;;;14.90;12.90;;;;;;;9.81;100.00;100314.81;2069713;28;20223;-62
2022/11/18 01:31:49;;;;;;;14.73;11.50;;;;;;;9.81;100.00;100312.84;2069172;28;20190;-62
2022/11/18 01:32:49;;;;;;;14.30;12.80;;;;;;;9.71;100.00;100299.25;2067082;28;20284;-62
2022/11/18 01:33:50;;;;;;;14.30;11.87;;;;;;;9.82;100.00;100305.28;2067761;28;20193;-62
2022/11/18 01:34:50;;;;;;;17.13;13.00;;;;;;;9.41;100.00;100245.09;2069456;28;20296;-62
2022/11/18 01:35:51;;;;;;;18.10;13.03;;;;;;;9.83;100.00;100304.06;2066068;28;20495;-62
2022/11/18 01:36:51;;;;;;;14.33;12.13;;;;;;;9.79;100.00;100312.47;2067319;28;20201;-62
2022/11/18 01:37:52;;;;;;;14.43;12.20;;;;;;;9.85;100.00;100304.44;2065711;28;20193;-62
2022/11/18 01:38:53;;;;;;;14.13;12.03;;;;;;;9.84;100.00;100323.00;2068341;28;20267;-62
2022/11/18 01:39:54;;;;;;;13.40;11.83;;;;;;;9.67;100.00;100268.13;2068015;28;20497;-62
2022/11/18 01:40:55;;;;;;;13.77;11.57;;;;;;;9.89;100.00;100302.34;2068595;28;20459;-62
2022/11/18 01:41:55;;;;;;;15.20;11.80;;;;;;;9.46;100.00;100236.28;2067500;28;20198;-62
2022/11/18 01:42:56;;;;;;;14.27;12.03;;;;;;;9.45;100.00;100231.94;2067330;28;20459;-62
2022/11/18 01:44:24;;;;;;;14.73;12.17;;;;;;;9.96;100.00;100304.94;2067943;28;20235;-61
2022/11/18 01:45:37;;;;;;;15.27;11.97;;;;;;;9.94;100.00;100304.59;2068158;28;20254;-62
2022/11/18 01:46:38;;;;;;;13.50;11.77;;;;;;;9.88;100.00;100284.19;2069252;28;20447;-62
2022/11/18 01:47:46;;;;;;;15.77;12.07;;;;;;;9.93;100.00;100298.28;2067189;28;20987;-62
2022/11/18 01:48:51;;;;;;;16.73;12.00;;;;;;;9.74;100.00;100268.72;2067522;28;20189;-62
2022/11/18 01:49:52;;;;;;;18.00;12.27;;;;;;;9.95;100.00;100297.84;2069509;28;20443;-62
2022/11/18 01:51:03;;;;;;;13.83;12.00;;;;;;;9.96;100.00;100299.41;2068600;28;20454;-63
2022/11/18 01:52:04;;;;;;;14.87;11.83;;;;;;;9.93;100.00;100287.19;2066659;28;20464;-62
2022/11/18 01:53:13;;;;;;;13.30;11.70;;;;;;;9.98;100.00;100303.28;2068227;28;20476;-62
2022/11/18 01:54:31;;;;;;;15.30;11.47;;;;;;;9.33;100.00;100199.44;2066879;28;20702;-61
2022/11/18 01:55:36;;;;;;;13.73;11.67;;;;;;;9.94;100.00;100302.59;2067338;28;20444;-62
2022/11/18 01:56:42;;;;;;;15.87;13.17;;;;;;;9.84;100.00;100295.34;2065870;28;20444;-62
2022/11/18 01:57:44;;;;;;;14.03;12.60;;;;;;;9.78;100.00;100294.31;2067355;28;20517;-62
2022/11/18 01:58:58;;;;;;;15.53;12.97;;;;;;;9.78;100.00;100296.31;2067269;28;21009;-61
2022/11/18 02:00:02;;;;;;;17.73;11.97;;;;;;;9.80;100.00;100299.44;2069563;28;21094;-62
2022/11/18 02:01:05;;;;;;;15.40;11.80;;;;;;;9.79;100.00;100286.81;2068819;28;20514;-62
2022/11/18 02:02:10;;;;;;;12.00;10.70;;;;;;;9.79;100.00;100295.09;2069618;28;20425;-61
2022/11/18 02:03:11;;;;;;;13.53;11.30;;;;;;;8.76;100.00;100132.22;2069230;28;20555;-62
2022/11/18 02:04:13;;;;;;;17.60;12.07;;;;;;;9.08;100.00;100181.94;2071243;28;20444;-62
2022/11/18 02:05:14;;;;;;;16.17;11.47;;;;;;;9.83;100.00;100298.53;2068030;28;20221;-62
2022/11/18 02:06:15;;;;;;;14.90;11.97;;;;;;;9.76;100.00;100282.13;2070355;28;20444;-62
2022/11/18 02:07:16;;;;;;;14.77;12.30;;;;;;;9.87;100.00;100294.47;2070750;28;21002;-62
2022/11/18 02:08:18;;;;;;;13.83;11.83;;;;;;;9.88;100.00;100289.72;2068810;28;20478;-62
2022/11/18 02:09:19;;;;;;;15.73;12.60;;;;;;;9.88;100.00;100295.25;2069646;28;20202;-62
2022/11/18 02:10:22;;;;;;;15.33;12.20;;;;;;;9.87;100.00;100297.25;2069730;28;20448;-62
2022/11/18 02:12:42;;;;;;;13.57;12.07;;;;;;;9.06;100.00;100176.06;2071068;28;20420;-62
2022/11/18 02:13:42;;;;;;;15.30;12.23;;;;;;;9.85;100.00;100293.38;2069207;28;20416;-62
2022/11/18 02:14:45;;;;;;;14.93;13.33;;;;;;;9.85;100.00;100296.88;2070576;28;20316;-62
2022/11/18 02:15:54;;;;;;;14.37;12.23;;;;;;;9.85;100.00;100293.38;2067773;28;20335;-62
2022/11/18 02:17:06;;;;;;;14.77;12.03;;;;;;;9.84;100.00;100292.56;2070448;28;20523;-62
2022/11/18 02:18:16;;;;;;;13.27;11.87;;;;;;;9.81;100.00;100296.22;2068205;28;20999;-62
2022/11/18 02:19:38;;;;;;;13.77;11.63;;;;;;;9.79;100.00;100295.88;2067566;28;20516;-62
2022/11/18 02:20:41;;;;;;;13.87;11.57;;;;;;;9.32;100.00;100214.50;2069154;28;20727;-62
2022/11/18 02:23:27;;;;;;;14.60;11.40;;;;;;;9.77;100.00;100290.00;2068116;28;20912;-62
2022/11/18 02:24:40;;;;;;;14.33;12.17;;;;;;;9.73;100.00;100297.59;2070089;28;21030;-62
2022/11/18 02:25:57;;;;;;;13.10;11.70;;;;;;;9.71;100.00;100299.25;2067526;28;20457;-62
2022/11/18 02:27:16;;;;;;;14.77;11.50;;;;;;;9.68;100.00;100298.13;2070251;28;20916;-62
2022/11/18 02:28:36;;;;;;;13.73;11.40;;;;;;;9.67;100.00;100296.59;2077844;28;20439;-62
2022/11/18 02:29:41;;;;;;;13.07;10.67;;;;;;;9.67;100.00;100302.13;2075551;28;20451;-62
2022/11/18 02:30:46;;;;;;;9.67;8.67;;;;;;;9.69;100.00;100301.69;2071017;28;20468;-62
2022/11/18 02:31:58;;;;;;;12.30;10.60;;;;;;;9.69;100.00;100296.16;2070547;28;20444;-62
2022/11/18 02:33:09;;;;;;;15.30;11.17;;;;;;;9.70;100.00;100300.47;2070782;28;21027;-62
2022/11/18 02:34:44;;;;;;;14.57;11.37;;;;;;;9.70;100.00;100300.47;2070663;28;20455;-62
2022/11/18 02:36:04;;;;;;;16.90;11.63;;;;;;;9.14;100.00;100216.94;2068471;28;21014;-62
2022/11/18 02:37:07;;;;;;;16.37;11.80;;;;;;;9.69;100.00;100298.91;2069211;28;20420;-62
2022/11/18 02:38:15;;;;;;;17.10;11.83;;;;;;;9.66;100.00;100295.03;2069389;28;20955;-62
2022/11/18 02:39:22;;;;;;;16.97;11.87;;;;;;;9.64;100.00;100302.97;2070674;28;20548;-62
2022/11/18 02:40:30;;;;;;;16.07;10.17;;;;;;;9.14;100.00;100228.00;2071742;28;20492;-62
2022/11/18 02:41:34;;;;;;;14.27;9.83;;;;;;;9.67;100.00;100301.31;2071713;28;20416;-62
2022/11/18 02:42:38;;;;;;;12.60;10.17;;;;;;;9.52;100.00;100278.00;2072099;28;20790;-62
2022/11/18 02:43:44;;;;;;;14.60;10.03;;;;;;;9.70;100.00;100298.50;2070788;28;20445;-62
2022/11/18 02:44:51;;;;;;;15.23;10.10;;;;;;;9.67;100.00;100293.81;2071556;28;20538;-62
2022/11/18 02:45:57;;;;;;;11.70;10.43;;;;;;;9.64;100.00;100293.91;2069339;28;20543;-62
2022/11/18 02:47:02;;;;;;;13.37;9.70;;;;;;;8.74;100.00;100162.25;2071020;28;20452;-62
2022/11/18 02:48:09;;;;;;;12.60;9.80;;;;;;;9.59;100.00;100297.19;2069438;28;20490;-62
2022/11/18 02:49:20;;;;;;;12.00;10.27;;;;;;;9.54;100.00;100298.47;2069644;28;21053;-62
2022/11/18 02:50:24;;;;;;;13.87;10.50;;;;;;;9.49;100.00;100304.53;2070947;28;20437;-62
2022/11/18 02:51:28;;;;;;;13.10;10.57;;;;;;;9.46;100.00;100304.63;2070147;28;20845;-62
2022/11/18 02:52:31;;;;;;;14.47;11.27;;;;;;;9.44;100.00;100296.00;2070574;28;20538;-62
2022/11/18 02:53:33;;;;;;;12.33;10.60;;;;;;;8.43;100.00;100136.16;2070169;28;20475;-62
2022/11/18 02:54:36;;;;;;;16.83;10.73;;;;;;;9.32;100.00;100282.88;2070716;28;20977;-62
2022/11/18 02:55:39;;;;;;;17.47;11.30;;;;;;;9.32;100.00;100296.69;2070112;28;20433;-62
2022/11/18 02:56:41;;;;;;;18.50;10.47;;;;;;;9.31;100.00;100295.09;2070927;28;20517;-62
2022/11/18 02:57:43;;;;;;;14.63;10.10;;;;;;;9.30;100.00;100293.56;2069739;28;20429;-62
2022/11/18 02:58:44;;;;;;;17.07;10.73;;;;;;;9.33;100.00;100292.72;2071209;28;21047;-62
2022/11/18 02:59:44;;;;;;;14.93;9.87;;;;;;;9.33;100.00;100289.94;2069816;28;20449;-62
2022/11/18 03:00:53;;;;;;;13.43;9.23;;;;;;;9.28;100.00;100298.75;2070474;28;20193;-62
2022/11/18 03:01:53;;;;;;;13.50;9.77;;;;;;;9.21;100.00;100285.88;2071045;28;20233;-62
2022/11/18 03:02:54;;;;;;;12.27;10.10;;;;;;;9.21;100.00;100291.41;2070942;28;20448;-62
2022/11/18 03:03:54;;;;;;;10.97;9.80;;;;;;;9.18;100.00;100292.25;2070709;28;20201;-62
2022/11/18 03:04:56;;;;;;;11.40;10.10;;;;;;;9.18;100.00;100285.97;2070845;28;20230;-62
2022/11/18 03:06:05;;;;;;;13.23;9.40;;;;;;;9.13;100.00;100284.47;2069298;28;20182;-62
2022/11/18 03:07:14;;;;;;;13.10;10.73;;;;;;;9.11;100.00;100286.09;2070314;28;20416;-62
2022/11/18 03:08:24;;;;;;;12.73;10.37;;;;;;;8.00;100.00;100130.00;2070169;28;20545;-62
2022/11/18 03:09:32;;;;;;;15.37;10.67;;;;;;;9.04;100.00;100287.06;2070370;28;20413;-62
2022/11/18 03:10:46;;;;;;;13.63;9.80;;;;;;;8.08;100.00;100158.97;2070131;28;21022;-62
2022/11/18 03:12:00;;;;;;;15.00;9.97;;;;;;;8.94;100.00;100284.53;2069982;28;20843;-62
2022/11/18 03:13:23;;;;;;;13.07;10.40;;;;;;;8.93;100.00;100289.28;2070799;28;20451;-62
2022/11/18 03:14:29;;;;;;;14.23;10.07;;;;;;;8.89;100.00;100285.84;2069198;28;20444;-62
2022/11/18 03:15:50;;;;;;;13.70;9.60;;;;;;;8.88;100.00;100289.81;2069354;28;20443;-62
2022/11/18 03:17:02;;;;;;;14.37;9.40;;;;;;;8.86;100.00;100292.19;2070510;28;20428;-62
2022/11/18 03:18:17;;;;;;;12.60;8.87;;;;;;;8.86;100.00;100302.50;2070017;28;20455;-62
2022/11/18 03:19:28;;;;;;;16.13;10.10;;;;;;;8.85;100.00;100300.91;2069649;28;20447;-62
2022/11/18 03:20:35;;;;;;;23.00;10.00;;;;;;;8.89;100.00;100296.88;2070659;28;20475;-62
2022/11/18 03:21:44;;;;;;;25.07;10.03;;;;;;;7.85;100.00;100157.06;2070204;28;20473;-62
2022/11/18 03:23:05;;;;;;;21.20;10.20;;;;;;;8.81;100.00;100295.47;2070447;28;20494;-62
2022/11/18 03:24:13;;;;;;;18.70;10.23;;;;;;;8.80;100.00;100296.69;2071145;28;20452;-62
2022/11/18 03:25:36;;;;;;;14.03;10.30;;;;;;;8.70;100.00;100294.13;2070675;28;20525;-62
2022/11/18 03:26:47;;;;;;;23.77;10.73;;;;;;;8.66;100.00;100298.97;2069218;28;20935;-62
2022/11/18 03:28:16;;;;;;;23.33;10.33;;;;;;;8.59;100.00;100296.34;2069726;28;20463;-62
2022/11/18 03:29:24;;;;;;;16.77;9.40;;;;;;;8.55;100.00;100287.34;2070261;28;20443;-62
2022/11/18 03:30:25;;;;;;;42.10;13.10;;;;;;;8.51;100.00;100295.72;2070578;28;20435;-62
2022/11/18 03:31:34;;;;;;;25.90;10.80;;;;;;;8.51;100.00;100290.19;2069732;28;20558;-62
2022/11/18 03:32:42;;;;;;;15.63;9.93;;;;;;;8.51;100.00;100292.19;2070062;28;20463;-62
2022/11/18 03:33:51;;;;;;;22.90;10.67;;;;;;;8.52;100.00;100283.50;2070334;28;20452;-62
2022/11/18 03:35:05;;;;;;;16.37;10.27;;;;;;;8.06;100.00;100219.34;2070294;28;20512;-62
2022/11/18 03:36:10;;;;;;;11.97;8.87;;;;;;;8.53;100.00;100287.00;2069289;28;20597;-62
2022/11/18 03:37:14;;;;;;;13.90;9.80;;;;;;;8.20;100.00;100239.16;2069914;28;20464;-62
2022/11/18 03:38:23;;;;;;;25.73;10.83;;;;;;;8.55;100.00;100290.91;2069483;28;20429;-62
2022/11/18 03:39:27;;;;;;;29.63;10.47;;;;;;;8.54;100.00;100281.06;2069546;28;20510;-62
2022/11/18 03:40:31;;;;;;;22.97;10.97;;;;;;;7.75;100.00;100155.31;2070699;28;21794;-62
2022/11/18 03:41:36;;;;;;;19.70;10.67;;;;;;;8.49;100.00;100286.31;2069741;28;20789;-62
2022/11/18 03:42:43;;;;;;;22.47;10.47;;;;;;;8.52;100.00;100280.72;2070086;28;20963;-62
2022/11/18 03:43:51;;;;;;;17.50;9.83;;;;;;;7.68;100.00;100155.44;2070387;28;20778;-62
2022/11/18 03:44:57;;;;;;;20.77;10.57;;;;;;;8.47;100.00;100288.72;2071262;28;20424;-62
2022/11/18 03:46:07;;;;;;;15.67;9.20;;;;;;;8.51;100.00;100283.91;2069934;28;20433;-62
2022/11/18 03:47:16;;;;;;;17.83;10.03;;;;;;;7.55;100.00;100138.00;2070988;28;20447;-62
2022/11/18 03:48:21;;;;;;;16.50;12.10;;;;;;;8.46;100.00;100282.41;2070808;28;20411;-62
2022/11/18 03:49:29;;;;;;;18.13;10.30;;;;;;;8.50;100.00;100283.13;2070806;28;20811;-62
2022/11/18 03:50:34;;;;;;;20.50;10.07;;;;;;;8.30;100.00;100259.50;2070932;28;20460;-62
2022/11/18 03:51:41;;;;;;;14.63;11.27;;;;;;;8.48;100.00;100288.31;2069570;28;20992;-62
2022/11/18 03:52:43;;;;;;;19.80;10.63;;;;;;;7.74;100.00;100184.09;2070332;28;20443;-62
2022/11/18 03:53:53;;;;;;;18.03;10.53;;;;;;;8.01;100.00;100220.63;2070272;28;21001;-62
2022/11/18 03:54:57;;;;;;;23.30;9.77;;;;;;;8.45;100.00;100288.38;2069941;28;20541;-62
2022/11/18 03:56:21;;;;;;;21.77;10.13;;;;;;;8.44;100.00;100289.56;2068879;28;20501;-62
2022/11/18 03:57:53;;;;;;;14.40;9.07;;;;;;;8.40;100.00;100288.88;2070137;28;20446;-62
2022/11/18 03:59:09;;;;;;;17.13;9.60;;;;;;;8.37;100.00;100295.25;2068506;28;20441;-62
2022/11/18 04:00:13;;;;;;;16.93;9.53;;;;;;;8.33;100.00;100292.56;2069960;28;20985;-62
2022/11/18 04:01:18;;;;;;;13.13;9.20;;;;;;;7.57;100.00;100182.47;2069042;28;20420;-62
2022/11/18 04:02:27;;;;;;;12.83;9.13;;;;;;;8.31;100.00;100302.47;2069824;28;20408;-62
2022/11/18 04:03:27;;;;;;;13.27;8.60;;;;;;;8.24;100.00;100292.31;2070338;28;20420;-62
2022/11/18 04:04:28;;;;;;;19.10;10.10;;;;;;;8.31;100.00;100303.22;2070748;28;20479;-62
2022/11/18 04:05:34;;;;;;;21.70;10.37;;;;;;;8.24;100.00;100294.31;2070449;28;20771;-61
2022/11/18 04:06:52;;;;;;;18.90;10.33;;;;;;;8.29;100.00;100304.84;2070186;28;20228;-62
2022/11/18 04:08:01;;;;;;;13.47;9.03;;;;;;;7.83;100.00;100264.31;2069816;28;20404;-62
2022/11/18 04:09:13;;;;;;;18.70;9.30;;;;;;;8.19;100.00;100290.03;2070905;28;20471;-62
2022/11/18 04:10:20;;;;;;;12.03;8.33;;;;;;;8.26;100.00;100300.19;2069746;28;20505;-61
2022/11/18 04:13:00;;;;;;;10.63;7.80;;;;;;;8.19;100.00;100292.78;2070019;28;20582;-62
2022/11/18 04:14:02;;;;;;;13.10;7.73;;;;;;;8.16;100.00;100296.38;2069400;28;20504;-62
2022/11/18 04:15:03;;;;;;;11.50;8.10;;;;;;;8.14;100.00;100289.72;2069602;28;20421;-62
2022/11/18 04:16:06;;;;;;;12.90;8.20;;;;;;;8.08;100.00;100280.41;2069263;28;20439;-62
2022/11/18 04:17:13;;;;;;;12.73;8.30;;;;;;;8.17;100.00;100297.19;2070388;28;20182;-62
2022/11/18 04:18:13;;;;;;;10.53;7.20;;;;;;;8.17;100.00;100292.44;2069384;28;20421;-61
2022/11/18 04:19:14;;;;;;;11.67;7.87;;;;;;;8.13;100.00;100288.97;2068993;28;20448;-62
2022/11/18 04:20:20;;;;;;;9.40;8.23;;;;;;;8.14;100.00;100292.50;2069802;28;20221;-62
2022/11/18 04:21:20;;;;;;;10.80;8.07;;;;;;;8.12;100.00;100281.09;2069666;28;20676;-62
2022/11/18 04:22:21;;;;;;;14.37;7.77;;;;;;;7.83;100.00;100242.25;2070513;28;20444;-62
2022/11/18 04:23:21;;;;;;;10.83;7.67;;;;;;;8.14;100.00;100293.28;2069149;28;20276;-62
2022/11/18 04:24:21;;;;;;;18.07;8.80;;;;;;;7.95;100.00;100262.91;2069476;28;20180;-62
2022/11/18 04:25:23;;;;;;;13.30;8.10;;;;;;;8.09;100.00;100279.97;2069257;28;20185;-62
2022/11/18 04:26:23;;;;;;;14.77;8.73;;;;;;;8.09;100.00;100291.00;2070140;28;20176;-62
2022/11/18 04:27:24;;;;;;;14.03;9.00;;;;;;;8.11;100.00;100288.59;2070079;28;21001;-62
2022/11/18 04:28:24;;;;;;;11.00;8.10;;;;;;;8.12;100.00;100279.13;2069474;28;20256;-62
2022/11/18 04:29:24;;;;;;;12.63;8.20;;;;;;;7.20;100.00;100137.84;2069782;28;20283;-62
2022/11/18 04:30:25;;;;;;;15.07;10.37;;;;;;;8.17;100.00;100277.84;2070143;28;20176;-62
2022/11/18 04:31:26;;;;;;;17.80;14.43;;;;;;;8.19;100.00;100283.72;2069882;28;20188;-62
2022/11/18 04:32:26;;;;;;;13.33;11.70;;;;;;;7.62;100.00;100190.25;2069592;28;20674;-62
2022/11/18 04:33:26;;;;;;;11.90;8.87;;;;;;;7.86;100.00;100224.84;2070234;28;20193;-62
2022/11/18 04:34:27;;;;;;;11.23;8.60;;;;;;;8.08;100.00;100261.06;2070959;28;20272;-62
2022/11/18 04:35:28;;;;;;;12.63;8.83;;;;;;;8.24;100.00;100286.81;2070148;28;20185;-62
2022/11/18 04:36:28;;;;;;;12.27;8.83;;;;;;;8.25;100.00;100291.13;2069180;28;20610;-62
2022/11/18 04:37:29;;;;;;;10.97;8.90;;;;;;;8.19;100.00;100281.75;2069029;28;20182;-62
2022/11/18 04:38:29;;;;;;;16.20;10.17;;;;;;;8.21;100.00;100279.38;2069679;28;20319;-62
2022/11/18 04:39:29;;;;;;;12.93;9.33;;;;;;;8.26;100.00;100295.44;2069749;28;20187;-62
2022/11/18 04:40:30;;;;;;;12.97;9.83;;;;;;;8.28;100.00;100297.78;2069189;28;20293;-62
2022/11/18 04:42:49;;;;;;;14.50;9.23;;;;;;;8.32;100.00;100299.28;2070327;28;20265;-62
2022/11/18 04:43:49;;;;;;;17.30;10.70;;;;;;;8.18;100.00;100284.94;2070203;28;20436;-62
2022/11/18 04:44:50;;;;;;;14.60;10.27;;;;;;;8.33;100.00;100295.31;2070090;28;20199;-62
2022/11/18 04:45:50;;;;;;;20.40;10.93;;;;;;;8.35;100.00;100309.47;2069869;28;20223;-62
2022/11/18 04:46:51;;;;;;;18.60;11.03;;;;;;;8.31;100.00;100303.22;2069695;28;20198;-62
2022/11/18 04:47:52;;;;;;;14.20;10.53;;;;;;;8.21;100.00;100290.41;2069230;28;20200;-62
2022/11/18 04:48:53;;;;;;;15.83;9.50;;;;;;;8.37;100.00;100293.25;2069377;28;20446;-62
2022/11/18 04:49:53;;;;;;;13.63;9.73;;;;;;;8.32;100.00;100298.50;2069625;28;20452;-61
2022/11/18 04:50:56;;;;;;;13.07;9.30;;;;;;;8.35;100.00;100292.13;2069064;28;20315;-62
2022/11/18 04:51:57;;;;;;;15.67;10.00;;;;;;;8.45;100.00;100314.00;2069611;28;20274;-62
2022/11/18 04:52:58;;;;;;;13.60;10.40;;;;;;;8.38;100.00;100292.06;2070119;28;20468;-62
2022/11/18 04:53:58;;;;;;;19.97;11.67;;;;;;;8.34;100.00;100296.88;2070927;28;20442;-61
2022/11/18 04:54:58;;;;;;;17.13;11.43;;;;;;;8.43;100.00;100293.53;2069381;28;20224;-59
2022/11/18 04:56:06;;;;;;;19.90;11.63;;;;;;;8.34;100.00;100274.00;2068244;28;20191;-59
2022/11/18 04:57:07;;;;;;;18.90;11.30;;;;;;;8.44;100.00;100287.59;2068691;28;20504;-58
2022/11/18 04:58:07;;;;;;;15.67;12.00;;;;;;;8.49;100.00;100297.34;2069071;28;20461;-59
2022/11/18 04:59:08;;;;;;;19.97;11.10;;;;;;;8.57;100.00;100293.25;2069628;28;20662;-61
2022/11/18 05:00:09;;;;;;;19.10;12.87;;;;;;;8.57;100.00;100287.72;2068365;28;20220;-61
2022/11/18 05:01:10;;;;;;;20.53;13.70;;;;;;;8.45;100.00;100285.63;2069420;28;20671;-61
2022/11/18 05:02:10;;;;;;;16.67;12.27;;;;;;;8.54;100.00;100296.84;2067139;28;20209;-61
2022/11/18 05:03:10;;;;;;;18.70;11.77;;;;;;;8.63;100.00;100297.06;2070279;28;20196;-62
2022/11/18 05:04:13;;;;;;;17.77;11.60;;;;;;;8.18;100.00;100204.88;2068684;28;20201;-60
2022/11/18 05:05:13;;;;;;;16.33;14.53;;;;;;;8.70;100.00;100294.13;2068191;28;20283;-62